createdAt,value
2023-09-10T00:00:05.155Z,8.79
2023-09-10T00:02:33.050Z,8.79
2023-09-10T00:05:00.706Z,8.77
2023-09-10T00:07:29.010Z,8.74
2023-09-10T00:09:56.797Z,8.70
2023-09-10T00:12:24.714Z,8.68
2023-09-10T00:14:52.494Z,8.68
2023-09-10T00:17:20.259Z,8.68
2023-09-10T00:19:48.345Z,8.66
2023-09-10T00:22:16.160Z,8.62
2023-09-10T00:24:44.110Z,8.60
2023-09-10T00:27:11.902Z,8.59
2023-09-10T00:29:39.676Z,8.59
2023-09-10T00:32:07.494Z,8.58
2023-09-10T00:34:35.840Z,8.53
2023-09-10T00:37:03.911Z,8.49
2023-09-10T00:39:32.759Z,8.47
2023-09-10T00:42:00.526Z,8.46
2023-09-10T00:44:28.460Z,8.45
2023-09-10T00:46:57.417Z,8.42
2023-09-10T00:49:25.419Z,8.36
2023-09-10T00:51:53.289Z,8.30
2023-09-10T00:54:21.978Z,8.24
2023-09-10T00:56:49.745Z,8.22
2023-09-10T00:59:17.775Z,8.22
2023-09-10T01:01:45.919Z,8.21
2023-09-10T01:04:13.962Z,8.14
2023-09-10T01:06:42.519Z,8.06
2023-09-10T01:09:10.379Z,7.98
2023-09-10T01:11:44.724Z,7.92
2023-09-10T01:14:24.477Z,7.90
2023-09-10T01:16:55.158Z,7.88
2023-09-10T01:20:11.354Z,7.86
2023-09-10T01:22:58.327Z,7.79
2023-09-10T01:25:26.056Z,7.71
2023-09-10T01:27:53.825Z,7.67
2023-09-10T01:30:21.794Z,7.65
2023-09-10T01:32:50.764Z,7.65
2023-09-10T01:35:34.408Z,7.64
2023-09-10T01:38:17.855Z,7.59
2023-09-10T01:41:01.428Z,7.52
2023-09-10T01:43:29.998Z,7.47
2023-09-10T01:45:57.850Z,7.45
2023-09-10T01:48:27.826Z,7.45
2023-09-10T01:50:56.101Z,7.43
2023-09-10T01:53:24.150Z,7.39
2023-09-10T01:55:52.354Z,7.35
2023-09-10T01:58:20.375Z,7.32
2023-09-10T02:00:48.143Z,7.32
2023-09-10T02:03:15.967Z,7.30
2023-09-10T02:05:44.207Z,7.27
2023-09-10T02:08:12.026Z,7.23
2023-09-10T02:10:40.084Z,7.16
2023-09-10T02:16:33.342Z,7.14
2023-09-10T02:19:01.180Z,7.10
2023-09-10T02:21:28.798Z,7.08
2023-09-10T02:23:56.433Z,7.03
2023-09-10T02:26:24.217Z,6.99
2023-09-10T02:28:53.422Z,6.98
2023-09-10T02:31:21.775Z,6.97
2023-09-10T02:33:49.646Z,6.96
2023-09-10T02:36:17.419Z,6.92
2023-09-10T02:38:45.363Z,6.85
2023-09-10T02:41:14.481Z,6.80
2023-09-10T02:43:42.299Z,6.76
2023-09-10T02:46:10.130Z,6.74
2023-09-10T02:48:39.051Z,6.75
2023-09-10T02:51:07.084Z,6.74
2023-09-10T02:53:35.055Z,6.72
2023-09-10T02:56:03.120Z,6.69
2023-09-10T02:58:31.154Z,6.65
2023-09-10T03:01:06.906Z,6.63
2023-09-10T03:03:35.317Z,6.62
2023-09-10T03:06:03.244Z,6.63
2023-09-10T03:08:37.450Z,6.64
2023-09-10T03:11:06.887Z,6.63
2023-09-10T03:13:44.660Z,6.60
2023-09-10T03:16:12.895Z,6.59
2023-09-10T03:18:41.536Z,6.59
2023-09-10T03:21:09.651Z,6.60
2023-09-10T03:23:37.412Z,6.58
2023-09-10T03:26:04.959Z,6.53
2023-09-10T03:28:33.150Z,6.50
2023-09-10T03:31:01.318Z,6.48
2023-09-10T03:33:29.344Z,6.48
2023-09-10T03:35:57.388Z,6.47
2023-09-10T03:38:26.933Z,6.44
2023-09-10T03:40:55.143Z,6.41
2023-09-10T03:43:25.079Z,6.40
2023-09-10T03:45:53.740Z,6.42
2023-09-10T03:48:22.060Z,6.46
2023-09-10T03:50:50.414Z,6.47
2023-09-10T03:53:18.844Z,6.46
2023-09-10T03:55:46.941Z,6.46
2023-09-10T03:58:15.437Z,6.50
2023-09-10T04:00:43.428Z,6.56
2023-09-10T04:03:11.734Z,6.63
2023-09-10T04:05:39.656Z,6.68
2023-09-10T04:08:07.561Z,6.72
2023-09-10T04:10:35.263Z,6.76
2023-09-10T04:13:02.921Z,6.83
2023-09-10T04:15:33.111Z,6.93
2023-09-10T04:18:00.997Z,7.04
2023-09-10T04:20:30.286Z,7.16
2023-09-10T04:22:58.106Z,7.27
2023-09-10T04:25:26.420Z,7.36
2023-09-10T04:27:54.583Z,7.43
2023-09-10T04:30:22.645Z,7.50
2023-09-10T04:32:50.622Z,7.61
2023-09-10T04:35:19.052Z,7.73
2023-09-10T04:37:46.988Z,7.87
2023-09-10T04:40:15.144Z,8.02
2023-09-10T04:42:42.908Z,8.16
2023-09-10T04:45:11.494Z,8.28
2023-09-10T04:47:39.671Z,8.39
2023-09-10T04:50:09.862Z,8.49
2023-09-10T04:52:39.362Z,8.62
2023-09-10T04:55:07.805Z,8.74
2023-09-10T04:57:36.155Z,8.89
2023-09-10T05:00:05.372Z,9.06
2023-09-10T05:02:33.567Z,9.25
2023-09-10T05:05:01.825Z,9.44
2023-09-10T05:07:29.668Z,9.63
2023-09-10T05:12:48.955Z,10.17
2023-09-10T05:15:16.929Z,10.46
2023-09-10T05:17:50.206Z,10.72
2023-09-10T05:20:18.459Z,10.99
2023-09-10T05:22:47.099Z,11.25
2023-09-10T05:25:14.953Z,11.50
2023-09-10T05:27:43.536Z,11.76
2023-09-10T05:30:11.908Z,12.04
2023-09-10T05:32:39.787Z,12.32
2023-09-10T05:35:10.661Z,12.60
2023-09-10T05:37:42.838Z,12.88
2023-09-10T05:40:12.291Z,13.11
2023-09-10T05:42:42.433Z,13.35
2023-09-10T05:45:20.316Z,13.58
2023-09-10T05:47:56.721Z,13.80
2023-09-10T05:50:25.917Z,13.97
2023-09-10T05:52:57.527Z,14.12
2023-09-10T05:55:25.605Z,14.28
2023-09-10T05:57:55.051Z,14.41
2023-09-10T06:00:23.511Z,14.50
2023-09-10T06:02:53.039Z,14.62
2023-09-10T06:05:20.980Z,14.78
2023-09-10T06:07:49.544Z,14.91
2023-09-10T06:10:17.408Z,15.04
2023-09-10T06:12:46.016Z,15.17
2023-09-10T06:15:13.979Z,15.30
2023-09-10T06:17:41.865Z,15.40
2023-09-10T06:20:13.278Z,15.50
2023-09-10T06:22:41.197Z,15.65
2023-09-10T06:33:00.064Z,16.15
2023-09-10T06:35:28.542Z,16.27
2023-09-10T06:37:56.540Z,16.40
2023-09-10T06:40:30.436Z,16.53
2023-09-10T06:42:58.903Z,16.62
2023-09-10T06:45:52.892Z,16.70
2023-09-10T06:48:22.440Z,16.80
2023-09-10T06:50:53.845Z,16.91
2023-09-10T06:53:21.557Z,16.98
2023-09-10T06:55:52.289Z,17.11
2023-09-10T06:58:20.103Z,17.23
2023-09-10T07:00:47.869Z,17.37
2023-09-10T07:03:15.750Z,17.46
2023-09-10T07:05:44.282Z,17.59
2023-09-10T07:08:12.417Z,17.72
2023-09-10T07:10:40.648Z,17.81
2023-09-10T07:13:09.434Z,17.86
2023-09-10T07:15:38.227Z,17.98
2023-09-10T07:18:07.691Z,18.06
2023-09-10T07:20:36.010Z,18.12
2023-09-10T07:23:04.728Z,18.15
2023-09-10T07:25:32.751Z,18.18
2023-09-10T07:28:00.762Z,18.23
2023-09-10T07:30:29.052Z,18.30
2023-09-10T07:32:56.916Z,18.37
2023-09-10T07:35:25.178Z,18.46
2023-09-10T07:37:54.544Z,18.66
2023-09-10T07:40:22.409Z,18.87
2023-09-10T07:42:51.636Z,18.96
2023-09-10T07:45:21.117Z,19.06
2023-09-10T07:47:49.067Z,19.21
2023-09-10T07:50:19.456Z,19.39
2023-09-10T07:52:48.139Z,19.53
2023-09-10T07:55:18.833Z,19.69
2023-09-10T07:57:46.696Z,19.82
2023-09-10T08:00:18.261Z,19.95
2023-09-10T08:02:47.565Z,20.09
2023-09-10T08:05:15.789Z,20.25
2023-09-10T08:07:46.362Z,20.39
2023-09-10T08:10:14.130Z,20.58
2023-09-10T08:12:41.948Z,20.66
2023-09-10T08:15:10.151Z,20.64
2023-09-10T08:17:38.112Z,20.65
2023-09-10T08:20:08.496Z,20.71
2023-09-10T08:22:39.296Z,20.83
2023-09-10T08:25:09.567Z,20.90
2023-09-10T08:27:38.098Z,20.96
2023-09-10T08:30:10.452Z,20.96
2023-09-10T08:32:41.593Z,21.04
2023-09-10T08:35:09.723Z,21.10
2023-09-10T08:38:01.509Z,21.07
2023-09-10T08:40:29.191Z,21.04
2023-09-10T08:43:10.523Z,21.09
2023-09-10T08:45:38.400Z,21.19
2023-09-10T08:48:06.352Z,21.35
2023-09-10T08:50:34.841Z,21.54
2023-09-10T08:53:08.945Z,21.65
2023-09-10T08:55:37.100Z,21.75
2023-09-10T08:58:05.020Z,21.85
2023-09-10T09:00:32.869Z,21.95
2023-09-10T09:03:02.270Z,22.07
2023-09-10T09:05:30.412Z,22.20
2023-09-10T09:08:04.763Z,22.35
2023-09-10T09:10:32.956Z,22.48
2023-09-10T09:13:05.049Z,22.58
2023-09-10T09:15:33.932Z,22.74
2023-09-10T09:18:01.969Z,22.84
2023-09-10T09:20:30.079Z,22.91
2023-09-10T09:23:05.683Z,22.85
2023-09-10T09:25:36.457Z,22.82
2023-09-10T09:28:04.632Z,22.93
2023-09-10T09:30:32.875Z,23.18
2023-09-10T09:33:00.860Z,23.47
2023-09-10T09:35:30.376Z,23.67
2023-09-10T09:37:59.175Z,23.84
2023-09-10T09:40:27.656Z,23.94
2023-09-10T09:43:13.159Z,23.98
2023-09-10T09:45:50.601Z,24.00
2023-09-10T09:48:18.953Z,24.06
2023-09-10T09:50:48.208Z,24.07
2023-09-10T09:53:16.458Z,24.12
2023-09-10T09:55:49.305Z,24.10
2023-09-10T09:58:19.866Z,24.08
2023-09-10T10:00:47.981Z,24.17
2023-09-10T10:03:22.571Z,24.27
2023-09-10T10:05:54.383Z,24.37
2023-09-10T10:08:28.604Z,24.56
2023-09-10T10:10:56.323Z,24.79
2023-09-10T10:13:25.328Z,24.98
2023-09-10T10:15:54.497Z,25.05
2023-09-10T10:18:32.151Z,25.18
2023-09-10T10:21:19.849Z,25.38
2023-09-10T10:24:31.303Z,25.59
2023-09-10T10:27:01.670Z,25.68
2023-09-10T10:29:32.595Z,25.77
2023-09-10T10:32:04.446Z,25.70
2023-09-10T10:34:39.475Z,25.71
2023-09-10T10:37:07.058Z,25.62
2023-09-10T10:40:03.269Z,25.56
2023-09-10T10:42:37.203Z,25.60
2023-09-10T10:45:07.346Z,25.74
2023-09-10T10:47:41.780Z,25.93
2023-09-10T10:50:12.695Z,26.12
2023-09-10T10:52:55.575Z,26.25
2023-09-10T10:55:24.491Z,26.51
2023-09-10T10:57:54.002Z,26.83
2023-09-10T11:00:22.267Z,27.04
2023-09-10T11:02:51.252Z,27.21
2023-09-10T11:05:19.979Z,27.37
2023-09-10T11:07:50.220Z,27.49
2023-09-10T11:10:27.445Z,27.50
2023-09-10T11:13:14.585Z,27.47
2023-09-10T11:16:05.965Z,27.48
2023-09-10T11:18:43.118Z,27.59
2023-09-10T11:21:14.867Z,27.80
2023-09-10T11:24:17.796Z,27.93
2023-09-10T11:26:45.776Z,27.98
2023-09-10T11:29:17.663Z,28.07
2023-09-10T11:31:49.567Z,28.16
2023-09-10T11:34:23.398Z,28.30
2023-09-10T11:36:56.365Z,28.50
2023-09-10T11:39:30.854Z,28.78
2023-09-10T11:42:00.046Z,29.02
2023-09-10T11:44:27.843Z,29.23
2023-09-10T11:46:56.746Z,29.38
2023-09-10T11:49:25.799Z,29.48
2023-09-10T11:51:57.897Z,29.54
2023-09-10T11:54:26.626Z,29.57
2023-09-10T11:56:57.170Z,29.62
2023-09-10T11:59:27.489Z,29.71
2023-09-10T12:01:55.917Z,29.83
2023-09-10T12:04:33.194Z,30.04
2023-09-10T12:07:03.150Z,30.30
2023-09-10T12:09:32.644Z,30.49
2023-09-10T12:12:31.682Z,30.50
2023-09-10T12:14:59.835Z,30.63
2023-09-10T12:17:28.348Z,30.83
2023-09-10T12:19:56.316Z,31.02
2023-09-10T12:22:24.778Z,31.18
2023-09-10T12:24:53.149Z,31.30
2023-09-10T12:27:21.332Z,31.48
2023-09-10T12:29:52.804Z,31.58
2023-09-10T12:32:23.684Z,31.35
2023-09-10T12:34:51.954Z,31.14
2023-09-10T12:37:19.577Z,31.06
2023-09-10T12:39:47.400Z,31.08
2023-09-10T12:42:15.161Z,31.26
2023-09-10T12:44:44.097Z,31.39
2023-09-10T12:47:14.426Z,31.50
2023-09-10T12:49:42.549Z,31.68
2023-09-10T12:52:10.472Z,31.84
2023-09-10T12:54:41.267Z,31.94
2023-09-10T12:57:11.727Z,31.88
2023-09-10T12:59:45.328Z,31.85
2023-09-10T13:02:13.368Z,31.80
2023-09-10T13:04:41.807Z,31.79
2023-09-10T13:07:13.609Z,31.90
2023-09-10T13:09:42.100Z,32.03
2023-09-10T13:12:09.925Z,32.17
2023-09-10T13:14:41.183Z,32.35
2023-09-10T13:17:11.936Z,32.42
2023-09-10T13:19:42.888Z,32.55
2023-09-10T13:22:10.672Z,32.61
2023-09-10T13:24:39.929Z,32.70
2023-09-10T13:27:08.091Z,32.66
2023-09-10T13:29:36.154Z,32.58
2023-09-10T13:32:06.331Z,32.67
2023-09-10T13:34:39.757Z,32.86
2023-09-10T13:37:10.207Z,32.88
2023-09-10T13:39:47.239Z,32.87
2023-09-10T13:42:17.083Z,32.85
2023-09-10T13:44:44.855Z,32.84
2023-09-10T13:47:14.761Z,32.74
2023-09-10T13:49:42.646Z,32.50
2023-09-10T13:52:13.893Z,32.40
2023-09-10T13:54:42.690Z,32.42
2023-09-10T13:57:13.628Z,32.50
2023-09-10T13:59:41.611Z,32.52
2023-09-10T14:02:09.548Z,32.52
2023-09-10T14:04:37.240Z,32.59
2023-09-10T14:07:05.224Z,32.63
2023-09-10T14:09:33.484Z,32.79
2023-09-10T14:12:01.608Z,33.02
2023-09-10T14:14:36.033Z,33.23
2023-09-10T14:17:06.923Z,33.39
2023-09-10T14:19:37.532Z,33.59
2023-09-10T14:22:09.006Z,33.73
2023-09-10T14:24:36.876Z,33.84
2023-09-10T14:27:05.576Z,33.92
2023-09-10T14:29:40.789Z,33.98
2023-09-10T14:32:08.856Z,34.08
2023-09-10T14:34:39.345Z,34.15
2023-09-10T14:37:08.193Z,34.27
2023-09-10T14:39:39.080Z,34.43
2023-09-10T14:42:07.174Z,34.62
2023-09-10T14:44:44.193Z,34.73
2023-09-10T14:47:12.012Z,34.70
2023-09-10T14:49:42.833Z,34.51
2023-09-10T14:52:13.007Z,34.37
2023-09-10T14:54:41.314Z,34.16
2023-09-10T14:57:13.781Z,33.98
2023-09-10T14:59:42.089Z,33.84
2023-09-10T15:02:10.305Z,33.61
2023-09-10T15:04:38.306Z,33.40
2023-09-10T15:07:06.157Z,33.31
2023-09-10T15:09:34.037Z,33.23
2023-09-10T15:12:02.246Z,33.13
2023-09-10T15:14:33.020Z,32.95
2023-09-10T15:17:01.297Z,32.62
2023-09-10T15:19:32.388Z,31.96
2023-09-10T15:22:03.243Z,30.88
2023-09-10T15:24:33.591Z,29.71
2023-09-10T15:27:01.604Z,28.59
2023-09-10T15:29:38.704Z,27.56
2023-09-10T15:32:06.904Z,26.57
2023-09-10T15:34:36.047Z,25.64
2023-09-10T15:37:04.025Z,24.84
2023-09-10T15:39:32.868Z,24.07
2023-09-10T15:42:00.688Z,23.33
2023-09-10T15:44:28.434Z,22.78
2023-09-10T15:46:56.722Z,22.31
2023-09-10T15:49:27.147Z,21.83
2023-09-10T15:54:25.317Z,20.98
2023-09-10T15:57:09.995Z,20.52
2023-09-10T15:59:38.201Z,20.18
2023-09-10T16:02:22.885Z,19.84
2023-09-10T16:04:52.687Z,19.55
2023-09-10T16:07:20.924Z,19.31
2023-09-10T16:09:51.740Z,19.08
2023-09-10T16:12:20.074Z,18.86
2023-09-10T16:14:47.696Z,18.62
2023-09-10T16:17:15.442Z,18.40
2023-09-10T16:19:43.207Z,18.19
2023-09-10T16:22:11.029Z,17.93
2023-09-10T16:24:40.338Z,17.72
2023-09-10T16:27:08.086Z,17.54
2023-09-10T16:29:35.813Z,17.35
2023-09-10T16:32:04.296Z,17.22
2023-09-10T16:34:32.157Z,17.08
2023-09-10T16:37:00.680Z,16.94
2023-09-10T16:39:28.359Z,16.80
2023-09-10T16:41:56.177Z,16.66
2023-09-10T16:44:30.135Z,16.53
2023-09-10T16:46:58.011Z,16.37
2023-09-10T16:49:26.621Z,16.26
2023-09-10T16:51:54.300Z,16.17
2023-09-10T16:54:24.309Z,16.07
2023-09-10T16:56:52.307Z,15.99
2023-09-10T16:59:20.395Z,15.93
2023-09-10T17:01:49.009Z,15.86
2023-09-10T17:04:16.997Z,15.81
2023-09-10T17:06:46.272Z,15.72
2023-09-10T17:09:14.519Z,15.63
2023-09-10T17:11:42.606Z,15.54
2023-09-10T17:14:10.696Z,15.46
2023-09-10T17:16:38.748Z,15.37
2023-09-10T17:19:06.912Z,15.30
2023-09-10T17:21:36.932Z,15.24
2023-09-10T17:24:05.486Z,15.18
2023-09-10T17:26:33.228Z,15.14
2023-09-10T17:29:03.869Z,15.09
2023-09-10T17:31:31.561Z,15.05
2023-09-10T17:34:00.245Z,14.99
2023-09-10T17:36:28.138Z,14.92
2023-09-10T17:38:55.886Z,14.83
2023-09-10T17:41:24.018Z,14.72
2023-09-10T17:43:55.116Z,14.63
2023-09-10T17:46:26.405Z,14.58
2023-09-10T17:48:54.202Z,14.56
2023-09-10T17:51:22.828Z,14.53
2023-09-10T17:53:50.725Z,14.48
2023-09-10T17:56:18.990Z,14.41
2023-09-10T17:58:46.834Z,14.36
2023-09-10T18:01:14.619Z,14.28
2023-09-10T18:03:44.253Z,14.20
2023-09-10T18:06:12.633Z,14.12
2023-09-10T18:08:40.713Z,14.04
2023-09-10T18:11:08.751Z,14.00
2023-09-10T18:13:36.910Z,13.97
2023-09-10T18:16:06.553Z,13.91
2023-09-10T18:18:34.626Z,13.84
2023-09-10T18:21:02.553Z,13.76
2023-09-10T18:23:30.493Z,13.70
2023-09-10T18:25:58.435Z,13.61
2023-09-10T18:28:26.215Z,13.55
2023-09-10T18:31:04.543Z,13.53
2023-09-10T18:33:34.740Z,13.50
2023-09-10T18:36:02.620Z,13.46
2023-09-10T18:38:32.779Z,13.39
2023-09-10T18:41:00.660Z,13.31
2023-09-10T18:43:28.355Z,13.25
2023-09-10T18:45:57.230Z,13.26
2023-09-10T18:48:25.003Z,13.25
2023-09-10T18:50:52.856Z,13.22
2023-09-10T18:53:21.901Z,13.17
2023-09-10T18:55:49.524Z,13.10
2023-09-10T18:58:17.356Z,13.04
2023-09-10T19:00:48.283Z,13.01
2023-09-10T19:03:16.182Z,13.02
2023-09-10T19:05:44.332Z,13.02
2023-09-10T19:08:12.664Z,12.99
2023-09-10T19:10:40.356Z,12.95
2023-09-10T19:13:08.872Z,12.90
2023-09-10T19:15:42.565Z,12.86
2023-09-10T19:18:10.718Z,12.80
2023-09-10T19:20:45.292Z,12.76
2023-09-10T19:23:13.164Z,12.71
2023-09-10T19:25:40.849Z,12.66
2023-09-10T19:28:08.675Z,12.58
2023-09-10T19:30:37.344Z,12.51
2023-09-10T19:33:05.717Z,12.47
2023-09-10T19:35:33.636Z,12.46
2023-09-10T19:38:01.501Z,12.44
2023-09-10T19:40:30.006Z,12.40
2023-09-10T19:42:57.670Z,12.35
2023-09-10T19:45:25.477Z,12.28
2023-09-10T19:47:54.588Z,12.24
2023-09-10T19:50:23.528Z,12.23
2023-09-10T19:52:51.275Z,12.23
2023-09-10T19:55:20.402Z,12.22
2023-09-10T19:57:48.097Z,12.18
2023-09-10T20:00:16.001Z,12.13
2023-09-10T20:02:44.595Z,12.07
2023-09-10T20:05:14.524Z,12.04
2023-09-10T20:07:43.403Z,12.03
2023-09-10T20:10:11.885Z,12.02
2023-09-10T20:12:40.511Z,11.99
2023-09-10T20:15:08.690Z,11.93
2023-09-10T20:17:36.680Z,11.87
2023-09-10T20:20:09.034Z,11.83
2023-09-10T20:22:37.638Z,11.81
2023-09-10T20:25:06.150Z,11.79
2023-09-10T20:27:34.906Z,11.75
2023-09-10T20:30:02.667Z,11.70
2023-09-10T20:32:30.684Z,11.63
2023-09-10T20:34:58.616Z,11.58
2023-09-10T20:37:26.320Z,11.56
2023-09-10T20:39:57.977Z,11.54
2023-09-10T20:42:26.476Z,11.52
2023-09-10T20:44:54.906Z,11.48
2023-09-10T20:47:22.704Z,11.44
2023-09-10T20:49:50.474Z,11.38
2023-09-10T20:52:18.561Z,11.35
2023-09-10T20:54:46.203Z,11.36
2023-09-10T20:57:13.974Z,11.38
2023-09-10T20:59:41.718Z,11.38
2023-09-10T21:02:09.689Z,11.36
2023-09-10T21:04:37.657Z,11.32
2023-09-10T21:07:05.765Z,11.28
2023-09-10T21:09:33.629Z,11.26
2023-09-10T21:12:01.431Z,11.25
2023-09-10T21:14:40.685Z,11.27
2023-09-10T21:17:11.062Z,11.27
2023-09-10T21:19:39.120Z,11.23
2023-09-10T21:22:07.002Z,11.19
2023-09-10T21:24:34.712Z,11.15
2023-09-10T21:27:03.468Z,11.14
2023-09-10T21:29:31.392Z,11.13
2023-09-10T21:31:59.400Z,11.12
2023-09-10T21:34:27.333Z,11.08
2023-09-10T21:36:55.317Z,11.02
2023-09-10T21:39:23.842Z,10.99
2023-09-10T21:41:51.836Z,10.97
2023-09-10T21:44:20.070Z,10.96
2023-09-10T21:46:49.349Z,10.93
2023-09-10T21:49:17.663Z,10.90
2023-09-10T21:51:45.828Z,10.88
2023-09-10T21:54:17.200Z,10.88
2023-09-10T21:56:46.969Z,10.88
2023-09-10T21:59:15.107Z,10.87
2023-09-10T22:01:42.929Z,10.84
2023-09-10T22:04:11.308Z,10.77
2023-09-10T22:06:39.364Z,10.73
2023-09-10T22:09:07.407Z,10.72
2023-09-10T22:11:35.474Z,10.72
2023-09-10T22:14:03.245Z,10.71
2023-09-10T22:16:32.518Z,10.68
2023-09-10T22:19:00.614Z,10.63
2023-09-10T22:21:28.272Z,10.61
2023-09-10T22:23:57.058Z,10.60
2023-09-10T22:26:25.003Z,10.60
2023-09-10T22:28:53.224Z,10.59
2023-09-10T22:31:22.092Z,10.56
2023-09-10T22:33:50.037Z,10.53
2023-09-10T22:36:29.066Z,10.52
2023-09-10T22:39:02.806Z,10.52
2023-09-10T22:43:38.810Z,10.50
2023-09-10T22:46:10.277Z,10.44
2023-09-10T22:48:38.526Z,10.44
2023-09-10T22:51:06.299Z,10.46
2023-09-10T22:53:34.716Z,10.51
2023-09-10T22:56:02.967Z,10.57
2023-09-10T22:58:30.650Z,10.62
2023-09-10T23:00:58.406Z,10.68
2023-09-10T23:03:26.282Z,10.73
2023-09-10T23:05:55.038Z,10.79
2023-09-10T23:08:23.033Z,10.84
2023-09-10T23:10:50.961Z,10.87
2023-09-10T23:13:18.738Z,10.89
2023-09-10T23:15:47.882Z,10.90
2023-09-10T23:18:15.863Z,10.93
2023-09-10T23:20:43.769Z,11.01
2023-09-10T23:23:11.459Z,11.07
2023-09-10T23:25:39.238Z,11.08
2023-09-10T23:28:07.072Z,11.04
2023-09-10T23:30:34.979Z,10.97
2023-09-10T23:33:03.599Z,10.91
2023-09-10T23:35:33.562Z,10.87
2023-09-10T23:38:01.502Z,10.84
2023-09-10T23:40:29.165Z,10.82
2023-09-10T23:42:56.899Z,10.77
2023-09-10T23:45:25.156Z,10.72
2023-09-10T23:47:52.715Z,10.73
2023-09-10T23:50:20.544Z,10.76
2023-09-10T23:52:51.912Z,10.77
2023-09-10T23:55:19.714Z,10.77
2023-09-10T23:57:47.450Z,10.75
